Bookmark and Share
Track history (hours):
 

Moniflor

Last reported at 2013-Mar-10 13:18 UTC. Time now 2014-Apr-23 19:16 UTC.
Position N 46°05' W 001°33'.
Warning: this ship's position is years out of date!

Length 78 m; draft 5.5 m.

Type: Other ship. MMSI: 227022500.

NotesDate/timePositionNaut miles runAvg speedWind from/ knotsBaromVisibWave heightAir tempDewpointWater temp
2013-Mar-10 13:18N 46°05' W 001°33'1 0.8
2013-Mar-10 12:09N 46°05' W 001°35'0 0.0
2013-Mar-09 23:18N 46°05' W 001°35'6 0.2
2013-Mar-08 18:17N 46°07' W 001°27'7 9.6
2013-Mar-08 17:33N 46°09' W 001°36'1010.3
2013-Mar-08 16:33N 46°17' W 001°46'1110.7
2013-Mar-08 15:34N 46°26' W 001°55'1110.5
2013-Mar-08 14:33N 46°34' W 002°04'1110.5
2013-Mar-08 13:33N 46°43' W 002°13'27 3.8
2013-Mar-08 06:20N 47°10' W 002°19'  
2013-Mar-04 12:15N 47°12' W 001°34'0 0.0
2013-Mar-04 11:31N 47°12' W 001°34'0 0.0
2013-Mar-04 10:31N 47°12' W 001°34'3 1.1
2013-Mar-04 08:12N 47°12' W 001°38'0 0.0
2013-Mar-04 07:31N 47°12' W 001°38'0 0.0
2013-Mar-04 06:34N 47°12' W 001°38'0 0.0
2013-Mar-04 05:34N 47°12' W 001°38'0 0.0
2013-Mar-04 04:34N 47°12' W 001°38'0 0.0
2013-Mar-04 02:33N 47°12' W 001°38'0 0.0
2013-Mar-03 15:33N 47°12' W 001°38'0 0.0
2013-Mar-03 14:32N 47°12' W 001°38'0 0.0
2013-Mar-03 10:17N 47°12' W 001°38'0 0.0
2013-Mar-03 09:23N 47°12' W 001°38'3 2.9
2013-Mar-03 08:29N 47°12' W 001°42'8 8.3
2013-Mar-03 07:34N 47°16' W 001°52'10 9.6
2013-Mar-03 06:32N 47°18' W 002°06'1010.0
2013-Mar-03 05:31N 47°12' W 002°18'0 0.0
2013-Mar-03 04:34N 47°12' W 002°18'0 0.0
2013-Mar-03 03:33N 47°12' W 002°18'0 0.1
2013-Mar-03 02:33N 47°12' W 002°18'0 0.1
2013-Mar-03 01:33N 47°12' W 002°18'0 0.0
2013-Mar-03 00:33N 47°12' W 002°18'0 0.0
2013-Mar-02 23:25N 47°12' W 002°18'0 0.0
2013-Mar-02 22:33N 47°12' W 002°18'0 0.0
2013-Mar-02 21:33N 47°12' W 002°18'0 0.0
2013-Mar-02 20:34N 47°12' W 002°18'0 0.0
2013-Mar-02 19:33N 47°12' W 002°18'0 0.0
2013-Mar-02 18:34N 47°12' W 002°18'5 5.0
2013-Mar-02 17:33N 47°08' W 002°21'2 1.9
2013-Mar-02 16:34N 47°06' W 002°22'0 0.2
2013-Mar-02 15:26N 47°06' W 002°21'0 0.2
2013-Mar-02 13:29N 47°06' W 002°22'8 0.8
2013-Mar-02 02:21N 47°14' W 002°16'5 0.2
2013-Mar-01 00:24N 47°17' W 002°12'0 0.0
2013-Feb-28 20:27N 47°17' W 002°12'0 0.0
2013-Feb-28 19:30N 47°17' W 002°12'0 0.0
2013-Feb-28 17:30N 47°17' W 002°12'  

Dump ship's entire track history

sailing weather and tide predictions

Moniflor — FVYQ — position and weather